createdAt,value
2018-05-03T12:29:53.040Z,78.17
2018-05-03T12:30:52.735Z,79.43
2018-05-03T12:31:52.702Z,80.20
2018-05-03T12:32:52.651Z,79.24
2018-05-03T12:33:52.627Z,79.62
2018-05-03T12:34:52.609Z,78.66
2018-05-03T12:36:52.513Z,77.78
2018-05-03T12:37:52.453Z,78.56
2018-05-03T12:38:52.427Z,79.82
2018-05-03T12:39:52.392Z,79.76
2018-05-03T12:41:52.342Z,79.80
2018-05-03T12:42:52.297Z,79.08
2018-05-03T12:43:52.269Z,78.79
2018-05-03T12:44:52.228Z,79.08
2018-05-03T12:45:52.383Z,78.59
2018-05-03T12:46:52.175Z,78.21
2018-05-03T12:47:52.155Z,78.75
2018-05-03T12:48:52.121Z,78.94
2018-05-03T12:49:52.081Z,78.94
2018-05-03T12:50:52.042Z,78.75
2018-05-03T12:51:52.060Z,79.08
2018-05-03T12:52:51.999Z,79.57
2018-05-03T12:53:51.945Z,78.59
2018-05-03T12:54:51.918Z,80.15
2018-05-03T12:55:51.896Z,78.11
2018-05-03T12:56:51.851Z,78.69
2018-05-03T12:57:51.831Z,78.41
2018-05-03T12:58:51.804Z,78.83
2018-05-03T12:59:51.773Z,78.54
2018-05-03T13:00:51.743Z,79.02
2018-05-03T13:01:51.702Z,78.92
2018-05-03T13:02:51.694Z,76.12
2018-05-03T13:03:51.668Z,74.86
2018-05-03T13:04:51.637Z,75.57
2018-05-03T13:05:51.603Z,75.34
2018-05-03T13:06:51.908Z,76.21
2018-05-03T13:07:51.526Z,76.15
2018-05-03T13:08:51.519Z,73.64
2018-05-03T13:09:51.475Z,74.08
2018-05-03T13:10:51.453Z,74.70
2018-05-03T13:11:51.444Z,74.47
2018-05-03T13:12:51.396Z,75.28
2018-05-03T13:13:51.358Z,75.73
2018-05-03T13:14:51.328Z,74.70
2018-05-03T13:15:51.318Z,75.77
2018-05-03T13:16:51.271Z,75.67
2018-05-03T13:17:51.240Z,75.09
2018-05-03T13:18:51.213Z,76.83
2018-05-03T13:19:51.204Z,76.06
2018-05-03T13:20:51.169Z,76.25
2018-05-03T13:21:51.147Z,74.60
2018-05-03T13:22:51.124Z,74.22
2018-05-03T13:23:51.079Z,75.48
2018-05-03T13:24:51.050Z,74.54
2018-05-03T13:25:51.016Z,75.23
2018-05-03T13:26:50.996Z,74.84
2018-05-03T13:27:50.989Z,73.96
2018-05-03T13:28:50.937Z,73.67
2018-05-03T13:29:50.910Z,73.77
2018-05-03T13:30:50.891Z,74.35
2018-05-03T13:31:50.861Z,74.06
2018-05-03T13:32:50.820Z,73.22
2018-05-03T13:33:50.811Z,75.55
2018-05-03T13:34:50.769Z,74.39
2018-05-03T13:35:50.749Z,74.00
2018-05-03T13:36:50.752Z,74.71
2018-05-03T13:37:50.727Z,72.16
2018-05-03T13:38:50.681Z,73.42
2018-05-03T13:39:50.681Z,72.58
2018-05-03T13:40:50.600Z,72.67
2018-05-03T13:41:50.607Z,71.96
2018-05-03T13:42:50.544Z,71.67
2018-05-03T13:43:50.690Z,71.77
2018-05-03T13:44:50.515Z,72.55
2018-05-03T13:45:50.480Z,72.87
2018-05-03T13:46:50.429Z,71.42
2018-05-03T13:47:50.398Z,71.90
2018-05-03T13:48:50.394Z,72.39
2018-05-03T13:49:50.606Z,72.00
2018-05-03T13:50:50.326Z,72.23
2018-05-03T13:51:50.314Z,69.48
2018-05-03T13:52:50.273Z,70.83
2018-05-03T13:53:50.242Z,71.38
2018-05-03T13:54:50.211Z,70.80
2018-05-03T13:55:50.571Z,71.38
2018-05-03T13:56:50.173Z,72.49
2018-05-03T13:57:50.125Z,71.12
2018-05-03T13:58:50.112Z,71.42
2018-05-03T13:59:50.094Z,72.97
2018-05-03T14:00:50.103Z,72.00
2018-05-03T14:01:50.182Z,72.00
2018-05-03T14:02:49.988Z,71.32
2018-05-03T14:03:49.991Z,71.12
2018-05-03T14:04:49.945Z,70.73
2018-05-03T14:05:49.914Z,69.48
2018-05-03T14:06:49.969Z,70.19
2018-05-03T14:07:49.854Z,69.32
2018-05-03T14:08:49.847Z,69.67
2018-05-03T14:09:49.869Z,69.32
2018-05-03T14:10:49.794Z,69.38
2018-05-03T14:11:49.759Z,69.09
2018-05-03T14:12:49.709Z,69.76
2018-05-03T14:13:49.710Z,70.15
2018-05-03T14:14:49.695Z,69.28
2018-05-03T14:15:49.671Z,69.09
2018-05-03T14:16:49.639Z,69.28
2018-05-03T14:17:49.926Z,69.51
2018-05-03T14:18:49.582Z,70.57
2018-05-03T14:19:49.545Z,68.54
2018-05-03T14:20:49.578Z,69.90
2018-05-03T14:21:49.496Z,70.09
2018-05-03T14:22:49.499Z,70.00
2018-05-03T14:23:49.433Z,72.07
2018-05-03T14:24:49.404Z,67.80
2018-05-03T14:25:49.374Z,68.18
2018-05-03T14:26:49.365Z,68.77
2018-05-03T14:27:49.331Z,69.15
2018-05-03T14:28:49.306Z,69.15
2018-05-03T14:29:49.263Z,69.38
2018-05-03T14:30:49.270Z,66.86
2018-05-03T14:31:49.232Z,66.47
2018-05-03T14:32:49.206Z,65.79
2018-05-03T14:33:49.203Z,66.37
2018-05-03T14:34:49.135Z,65.30
2018-05-03T14:35:49.100Z,65.50
2018-05-03T14:36:49.073Z,68.22
2018-05-03T14:37:49.052Z,68.60
2018-05-03T14:38:49.033Z,64.46
2018-05-03T14:39:48.992Z,62.29
2018-05-03T14:40:48.972Z,65.01
2018-05-03T14:41:48.929Z,65.40
2018-05-03T14:42:48.922Z,65.43
2018-05-03T14:43:48.888Z,66.11
2018-05-03T14:44:48.867Z,65.72
2018-05-03T14:45:48.826Z,63.17
2018-05-03T14:46:48.819Z,64.04
2018-05-03T14:47:48.774Z,65.30
2018-05-03T14:48:48.769Z,63.55
2018-05-03T14:49:48.729Z,63.36
2018-05-03T14:50:48.707Z,62.65
2018-05-03T14:51:48.673Z,64.98
2018-05-03T14:52:48.630Z,65.89
2018-05-03T14:53:48.616Z,65.98
2018-05-03T14:54:48.836Z,66.89
2018-05-03T14:55:48.581Z,66.89
2018-05-03T14:56:48.540Z,66.11
2018-05-03T14:57:48.498Z,65.59
2018-05-03T14:58:48.480Z,66.08
2018-05-03T14:59:48.448Z,66.31
2018-05-03T15:00:48.697Z,65.33
2018-05-03T15:01:48.409Z,65.04
2018-05-03T15:02:48.381Z,65.72
2018-05-03T15:03:48.346Z,65.89
2018-05-03T15:04:48.315Z,65.82
2018-05-03T15:05:48.299Z,67.57
2018-05-03T15:06:48.585Z,67.66
2018-05-03T15:07:48.239Z,66.99
2018-05-03T15:08:48.234Z,68.35
2018-05-03T15:09:48.193Z,67.08
2018-05-03T15:10:48.168Z,67.86
2018-05-03T15:11:48.552Z,67.89
2018-05-03T15:12:48.227Z,66.47
2018-05-03T15:13:48.087Z,63.75
2018-05-03T15:14:48.074Z,63.94
2018-05-03T15:15:48.027Z,64.14
2018-05-03T15:16:48.001Z,63.84
2018-05-03T15:17:47.986Z,64.43
2018-05-03T15:18:47.939Z,63.26
2018-05-03T15:19:47.947Z,63.45
2018-05-03T15:20:47.919Z,62.77
2018-05-03T15:21:47.884Z,63.45
2018-05-03T15:22:47.840Z,64.49
2018-05-03T15:23:47.824Z,64.78
2018-05-03T15:24:47.795Z,65.69
2018-05-03T15:25:47.788Z,66.76
2018-05-03T15:27:48.318Z,66.24
2018-05-03T15:28:47.732Z,64.59
2018-05-03T15:29:47.668Z,65.11
2018-05-03T15:30:47.769Z,63.55
2018-05-03T15:31:47.610Z,64.91
2018-05-03T15:32:47.582Z,66.21
2018-05-03T15:33:47.866Z,61.93
2018-05-03T15:34:47.532Z,62.00
2018-05-03T15:35:47.529Z,65.40
2018-05-03T15:36:47.493Z,64.43
2018-05-03T15:37:47.466Z,64.14
2018-05-03T15:38:47.542Z,64.14
2018-05-03T15:39:47.439Z,63.26
2018-05-03T15:40:47.379Z,62.68
2018-05-03T15:41:47.335Z,62.07
2018-05-03T15:42:47.317Z,63.62
2018-05-03T15:43:47.289Z,64.11
2018-05-03T15:44:47.552Z,65.11
2018-05-03T15:45:47.257Z,64.81
2018-05-03T15:46:47.211Z,64.43
2018-05-03T15:47:47.184Z,64.53
2018-05-03T15:48:47.171Z,65.20
2018-05-03T15:49:47.196Z,64.95
2018-05-03T15:50:47.097Z,65.43
2018-05-03T15:51:47.099Z,62.32
2018-05-03T15:52:47.061Z,63.62
2018-05-03T15:53:47.018Z,61.18
2018-05-03T15:54:47.020Z,61.77
2018-05-03T15:55:46.996Z,59.14
2018-05-03T15:56:46.959Z,60.60
2018-05-03T15:57:47.001Z,60.11
2018-05-03T15:58:46.882Z,58.56
2018-05-03T15:59:46.878Z,58.46
2018-05-03T16:00:46.841Z,58.56
2018-05-03T16:01:46.824Z,58.46
2018-05-03T16:02:46.795Z,57.87
2018-05-03T16:03:46.764Z,58.78
2018-05-03T16:04:46.750Z,59.72
2018-05-03T16:05:46.724Z,59.92
2018-05-03T16:06:46.687Z,61.21
2018-05-03T16:07:46.673Z,59.85
2018-05-03T16:08:46.642Z,63.16
2018-05-03T16:09:46.595Z,61.08
2018-05-03T16:10:46.728Z,62.06
2018-05-03T16:11:46.548Z,61.99
2018-05-03T16:12:46.552Z,62.06
2018-05-03T16:13:46.523Z,62.48
2018-05-03T16:14:46.486Z,60.53
2018-05-03T16:15:46.445Z,62.19
2018-05-03T16:16:46.563Z,61.70
2018-05-03T16:17:46.394Z,62.70
2018-05-03T16:18:46.385Z,59.95
2018-05-03T16:19:46.359Z,61.31
2018-05-03T16:20:46.312Z,59.95
2018-05-03T16:21:46.290Z,59.30
2018-05-03T16:22:46.262Z,58.81
2018-05-03T16:23:46.244Z,57.54
2018-05-03T16:24:46.240Z,56.79
2018-05-03T16:25:46.231Z,56.30
2018-05-03T16:26:46.176Z,55.91
2018-05-03T16:27:46.151Z,55.23
2018-05-03T16:28:46.098Z,57.18
2018-05-03T16:29:46.094Z,57.37
2018-05-03T16:30:46.228Z,57.86
2018-05-03T16:31:46.031Z,55.91
2018-05-03T16:32:46.228Z,56.50
2018-05-03T16:33:45.975Z,56.70
2018-05-03T16:34:45.953Z,55.82
2018-05-03T16:35:45.938Z,57.25
2018-05-03T16:36:45.984Z,59.49
2018-05-03T16:37:45.899Z,59.10
2018-05-03T16:38:45.843Z,60.66
2018-05-03T16:39:45.830Z,58.15
2018-05-03T16:40:45.811Z,58.06
2018-05-03T16:41:45.785Z,57.86
2018-05-03T16:42:45.741Z,58.15
2018-05-03T16:43:45.717Z,57.47
2018-05-03T16:44:45.692Z,56.86
2018-05-03T16:45:45.660Z,56.74
2018-05-03T16:46:45.687Z,57.71
2018-05-03T16:47:45.631Z,59.23
2018-05-03T16:48:45.586Z,60.96
2018-05-03T16:49:45.570Z,63.20
2018-05-03T16:50:45.538Z,62.97
2018-05-03T16:51:45.530Z,59.57
2018-05-03T16:52:45.505Z,61.12
2018-05-03T16:53:45.464Z,62.10
2018-05-03T16:54:45.481Z,62.19
2018-05-03T16:55:45.424Z,64.43
2018-05-03T16:56:45.558Z,63.75
2018-05-03T16:57:45.360Z,63.87
2018-05-03T16:58:45.755Z,61.77
2018-05-03T16:59:45.316Z,60.50
2018-05-03T17:00:45.276Z,60.89
2018-05-03T17:01:45.268Z,62.06
2018-05-03T17:02:45.232Z,62.29
2018-05-03T17:03:45.224Z,61.51
2018-05-03T17:04:45.208Z,61.41
2018-05-03T17:05:45.165Z,61.67
2018-05-03T17:06:45.211Z,62.23
2018-05-03T17:07:45.124Z,62.03
2018-05-03T17:08:45.191Z,61.32
2018-05-03T17:09:45.067Z,62.10
2018-05-03T17:10:45.262Z,60.83
2018-05-03T17:11:45.018Z,62.68
2018-05-03T17:12:45.048Z,62.77
2018-05-03T17:13:44.963Z,62.23
2018-05-03T17:14:44.930Z,62.03
2018-05-03T17:16:44.904Z,62.35
2018-05-03T17:17:44.851Z,60.41
2018-05-03T17:18:44.830Z,63.55
2018-05-03T17:19:44.787Z,60.14
2018-05-03T17:20:45.409Z,59.46
2018-05-03T17:21:44.755Z,57.61
2018-05-03T17:22:44.928Z,57.90
2018-05-03T17:23:44.684Z,57.81
2018-05-03T17:24:44.681Z,58.61
2018-05-03T17:25:44.701Z,58.51
2018-05-03T17:26:44.617Z,57.54
2018-05-03T17:27:44.593Z,57.84
2018-05-03T17:28:44.557Z,58.91
2018-05-03T17:29:44.539Z,59.00
2018-05-03T17:30:44.509Z,57.84
2018-05-03T17:31:44.829Z,58.32
2018-05-03T17:32:44.470Z,56.76
2018-05-03T17:33:44.509Z,57.74
2018-05-03T17:34:44.425Z,57.22
2018-05-03T17:35:44.388Z,56.93
2018-05-03T17:36:44.352Z,57.03
2018-05-03T17:37:44.735Z,57.59
2018-05-03T17:38:44.319Z,57.59
2018-05-03T17:39:44.294Z,57.59
2018-05-03T17:40:44.252Z,59.33
2018-05-03T17:41:44.227Z,58.95
2018-05-03T17:42:44.206Z,58.07
2018-05-03T17:43:44.485Z,59.92
2018-05-03T17:44:44.157Z,59.63
2018-05-03T23:45:46.675Z,79.43
2018-05-03T23:46:46.409Z,79.66
2018-05-03T23:47:46.390Z,79.62
2018-05-03T23:48:46.354Z,79.82
